sensor_id;sensor_type;location;lat;lon;timestamp;P1;durP1;ratioP1;P2;durP2;ratioP2
68010;SDS011;54794;48.348;7.878;2023-03-05T00:01:31;13.73;;;5.47;;
68010;SDS011;54794;48.348;7.878;2023-03-05T00:04:00;11.98;;;5.50;;
68010;SDS011;54794;48.348;7.878;2023-03-05T00:06:30;15.88;;;6.05;;
68010;SDS011;54794;48.348;7.878;2023-03-05T00:08:58;14.30;;;5.68;;
68010;SDS011;54794;48.348;7.878;2023-03-05T00:13:59;9.93;;;4.95;;
68010;SDS011;54794;48.348;7.878;2023-03-05T00:16:29;9.88;;;5.22;;
68010;SDS011;54794;48.348;7.878;2023-03-05T00:18:57;9.50;;;4.60;;
68010;SDS011;54794;48.348;7.878;2023-03-05T00:21:27;11.15;;;4.65;;
68010;SDS011;54794;48.348;7.878;2023-03-05T00:24:01;10.07;;;4.28;;
68010;SDS011;54794;48.348;7.878;2023-03-05T00:26:34;9.82;;;4.72;;
68010;SDS011;54794;48.348;7.878;2023-03-05T00:29:04;11.93;;;5.13;;
68010;SDS011;54794;48.348;7.878;2023-03-05T00:31:34;10.73;;;4.80;;
68010;SDS011;54794;48.348;7.878;2023-03-05T00:34:04;12.50;;;5.68;;
68010;SDS011;54794;48.348;7.878;2023-03-05T00:36:39;8.57;;;4.07;;
68010;SDS011;54794;48.348;7.878;2023-03-05T00:39:11;10.88;;;5.32;;
68010;SDS011;54794;48.348;7.878;2023-03-05T00:41:40;11.70;;;5.53;;
68010;SDS011;54794;48.348;7.878;2023-03-05T00:44:07;12.50;;;5.97;;
68010;SDS011;54794;48.348;7.878;2023-03-05T00:46:35;13.57;;;6.38;;
68010;SDS011;54794;48.348;7.878;2023-03-05T00:51:30;10.82;;;5.07;;
68010;SDS011;54794;48.348;7.878;2023-03-05T00:53:57;13.85;;;5.82;;
68010;SDS011;54794;48.348;7.878;2023-03-05T00:56:24;12.52;;;5.95;;
68010;SDS011;54794;48.348;7.878;2023-03-05T00:58:52;15.32;;;5.78;;
68010;SDS011;54794;48.348;7.878;2023-03-05T01:01:18;14.10;;;5.93;;
68010;SDS011;54794;48.348;7.878;2023-03-05T01:03:45;10.77;;;4.82;;
68010;SDS011;54794;48.348;7.878;2023-03-05T01:06:13;13.20;;;5.80;;
68010;SDS011;54794;48.348;7.878;2023-03-05T01:08:42;13.07;;;5.75;;
68010;SDS011;54794;48.348;7.878;2023-03-05T01:11:10;11.38;;;5.93;;
68010;SDS011;54794;48.348;7.878;2023-03-05T01:13:37;12.02;;;5.50;;
68010;SDS011;54794;48.348;7.878;2023-03-05T01:16:05;11.73;;;5.40;;
68010;SDS011;54794;48.348;7.878;2023-03-05T01:18:33;11.65;;;5.55;;
68010;SDS011;54794;48.348;7.878;2023-03-05T01:21:02;10.82;;;5.25;;
68010;SDS011;54794;48.348;7.878;2023-03-05T01:23:30;13.23;;;5.80;;
68010;SDS011;54794;48.348;7.878;2023-03-05T01:25:59;11.68;;;5.32;;
68010;SDS011;54794;48.348;7.878;2023-03-05T01:28:26;11.98;;;5.57;;
68010;SDS011;54794;48.348;7.878;2023-03-05T01:30:54;10.85;;;5.55;;
68010;SDS011;54794;48.348;7.878;2023-03-05T01:33:21;12.85;;;5.47;;
68010;SDS011;54794;48.348;7.878;2023-03-05T01:35:48;9.73;;;4.78;;
68010;SDS011;54794;48.348;7.878;2023-03-05T01:38:16;12.25;;;5.22;;
68010;SDS011;54794;48.348;7.878;2023-03-05T01:40:43;13.57;;;5.55;;
68010;SDS011;54794;48.348;7.878;2023-03-05T01:45:37;11.95;;;5.28;;
68010;SDS011;54794;48.348;7.878;2023-03-05T01:51:05;10.15;;;4.47;;
68010;SDS011;54794;48.348;7.878;2023-03-05T01:53:32;8.07;;;3.88;;
68010;SDS011;54794;48.348;7.878;2023-03-05T01:55:59;8.07;;;4.32;;
68010;SDS011;54794;48.348;7.878;2023-03-05T01:58:27;11.05;;;5.13;;
68010;SDS011;54794;48.348;7.878;2023-03-05T02:00:54;13.25;;;4.97;;
68010;SDS011;54794;48.348;7.878;2023-03-05T02:03:21;11.82;;;5.03;;
68010;SDS011;54794;48.348;7.878;2023-03-05T02:05:50;11.75;;;5.22;;
68010;SDS011;54794;48.348;7.878;2023-03-05T02:08:18;12.73;;;5.45;;
68010;SDS011;54794;48.348;7.878;2023-03-05T02:10:48;10.52;;;5.10;;
68010;SDS011;54794;48.348;7.878;2023-03-05T02:13:27;11.27;;;5.40;;
68010;SDS011;54794;48.348;7.878;2023-03-05T02:16:01;10.25;;;4.85;;
68010;SDS011;54794;48.348;7.878;2023-03-05T02:18:29;12.15;;;5.38;;
68010;SDS011;54794;48.348;7.878;2023-03-05T02:23:28;11.68;;;5.55;;
68010;SDS011;54794;48.348;7.878;2023-03-05T02:26:02;11.50;;;4.72;;
68010;SDS011;54794;48.348;7.878;2023-03-05T02:28:41;10.05;;;4.60;;
68010;SDS011;54794;48.348;7.878;2023-03-05T02:31:20;11.10;;;5.40;;
68010;SDS011;54794;48.348;7.878;2023-03-05T02:33:49;10.05;;;4.72;;
68010;SDS011;54794;48.348;7.878;2023-03-05T02:36:19;13.23;;;5.55;;
68010;SDS011;54794;48.348;7.878;2023-03-05T02:38:47;12.95;;;5.55;;
68010;SDS011;54794;48.348;7.878;2023-03-05T02:41:14;9.98;;;5.25;;
68010;SDS011;54794;48.348;7.878;2023-03-05T02:43:41;10.00;;;5.03;;
68010;SDS011;54794;48.348;7.878;2023-03-05T02:46:08;13.63;;;6.35;;
68010;SDS011;54794;48.348;7.878;2023-03-05T02:51:03;8.57;;;4.15;;
68010;SDS011;54794;48.348;7.878;2023-03-05T02:53:32;11.18;;;5.05;;
68010;SDS011;54794;48.348;7.878;2023-03-05T02:58:27;8.73;;;4.25;;
68010;SDS011;54794;48.348;7.878;2023-03-05T03:00:54;9.85;;;4.47;;
68010;SDS011;54794;48.348;7.878;2023-03-05T03:03:21;11.25;;;5.10;;
68010;SDS011;54794;48.348;7.878;2023-03-05T03:05:47;10.57;;;4.97;;
68010;SDS011;54794;48.348;7.878;2023-03-05T03:08:15;10.80;;;4.78;;
68010;SDS011;54794;48.348;7.878;2023-03-05T03:10:41;12.75;;;5.22;;
68010;SDS011;54794;48.348;7.878;2023-03-05T03:13:08;11.80;;;4.80;;
68010;SDS011;54794;48.348;7.878;2023-03-05T03:15:35;9.75;;;4.50;;
68010;SDS011;54794;48.348;7.878;2023-03-05T03:20:30;10.30;;;4.18;;
68010;SDS011;54794;48.348;7.878;2023-03-05T03:22:57;12.27;;;4.90;;
68010;SDS011;54794;48.348;7.878;2023-03-05T03:25:24;12.48;;;5.45;;
68010;SDS011;54794;48.348;7.878;2023-03-05T03:27:51;9.05;;;4.18;;
68010;SDS011;54794;48.348;7.878;2023-03-05T03:30:18;10.35;;;4.60;;
68010;SDS011;54794;48.348;7.878;2023-03-05T03:32:45;10.38;;;5.10;;
68010;SDS011;54794;48.348;7.878;2023-03-05T03:35:12;11.35;;;5.57;;
68010;SDS011;54794;48.348;7.878;2023-03-05T03:37:39;10.10;;;4.90;;
68010;SDS011;54794;48.348;7.878;2023-03-05T03:40:06;11.30;;;4.82;;
68010;SDS011;54794;48.348;7.878;2023-03-05T03:42:34;9.98;;;4.55;;
68010;SDS011;54794;48.348;7.878;2023-03-05T03:45:02;10.07;;;4.53;;
68010;SDS011;54794;48.348;7.878;2023-03-05T03:47:30;10.93;;;5.28;;
68010;SDS011;54794;48.348;7.878;2023-03-05T03:49:57;10.32;;;4.75;;
68010;SDS011;54794;48.348;7.878;2023-03-05T03:52:24;10.93;;;4.90;;
68010;SDS011;54794;48.348;7.878;2023-03-05T03:54:52;11.18;;;4.63;;
68010;SDS011;54794;48.348;7.878;2023-03-05T03:57:20;11.82;;;5.32;;
68010;SDS011;54794;48.348;7.878;2023-03-05T03:59:47;10.77;;;5.18;;
68010;SDS011;54794;48.348;7.878;2023-03-05T04:04:42;9.40;;;4.47;;
68010;SDS011;54794;48.348;7.878;2023-03-05T04:07:09;10.65;;;4.95;;
68010;SDS011;54794;48.348;7.878;2023-03-05T04:09:37;11.02;;;4.75;;
68010;SDS011;54794;48.348;7.878;2023-03-05T04:12:04;9.00;;;4.20;;
68010;SDS011;54794;48.348;7.878;2023-03-05T04:16:59;8.50;;;3.92;;
68010;SDS011;54794;48.348;7.878;2023-03-05T04:19:26;7.97;;;3.95;;
68010;SDS011;54794;48.348;7.878;2023-03-05T04:21:56;11.80;;;4.93;;
68010;SDS011;54794;48.348;7.878;2023-03-05T04:24:24;12.90;;;5.63;;
68010;SDS011;54794;48.348;7.878;2023-03-05T04:29:18;8.27;;;3.92;;
68010;SDS011;54794;48.348;7.878;2023-03-05T04:31:45;10.55;;;4.85;;
68010;SDS011;54794;48.348;7.878;2023-03-05T04:38:34;9.95;;;4.60;;
68010;SDS011;54794;48.348;7.878;2023-03-05T04:41:17;11.15;;;4.80;;
68010;SDS011;54794;48.348;7.878;2023-03-05T04:44:25;9.35;;;4.15;;
68010;SDS011;54794;48.348;7.878;2023-03-05T04:47:31;9.40;;;4.85;;
68010;SDS011;54794;48.348;7.878;2023-03-05T04:50:19;10.55;;;4.50;;
68010;SDS011;54794;48.348;7.878;2023-03-05T04:53:18;12.13;;;4.93;;
68010;SDS011;54794;48.348;7.878;2023-03-05T04:55:50;9.88;;;4.35;;
68010;SDS011;54794;48.348;7.878;2023-03-05T04:58:47;10.60;;;5.15;;
68010;SDS011;54794;48.348;7.878;2023-03-05T05:01:18;12.27;;;5.10;;
68010;SDS011;54794;48.348;7.878;2023-03-05T05:03:50;11.35;;;5.13;;
68010;SDS011;54794;48.348;7.878;2023-03-05T05:06:24;10.48;;;4.68;;
68010;SDS011;54794;48.348;7.878;2023-03-05T05:08:54;9.23;;;5.20;;
68010;SDS011;54794;48.348;7.878;2023-03-05T05:11:38;9.82;;;5.03;;
68010;SDS011;54794;48.348;7.878;2023-03-05T05:14:21;9.15;;;4.10;;
68010;SDS011;54794;48.348;7.878;2023-03-05T05:16:50;11.93;;;5.07;;
68010;SDS011;54794;48.348;7.878;2023-03-05T05:19:28;9.57;;;4.72;;
68010;SDS011;54794;48.348;7.878;2023-03-05T05:21:59;10.75;;;5.03;;
68010;SDS011;54794;48.348;7.878;2023-03-05T05:24:34;10.10;;;4.82;;
68010;SDS011;54794;48.348;7.878;2023-03-05T05:27:03;10.70;;;5.55;;
68010;SDS011;54794;48.348;7.878;2023-03-05T05:29:41;10.50;;;4.70;;
68010;SDS011;54794;48.348;7.878;2023-03-05T05:35:45;9.75;;;4.93;;
68010;SDS011;54794;48.348;7.878;2023-03-05T05:38:52;10.50;;;4.43;;
68010;SDS011;54794;48.348;7.878;2023-03-05T05:41:21;12.15;;;5.10;;
68010;SDS011;54794;48.348;7.878;2023-03-05T05:44:12;9.95;;;4.32;;
68010;SDS011;54794;48.348;7.878;2023-03-05T05:46:39;12.48;;;5.47;;
68010;SDS011;54794;48.348;7.878;2023-03-05T05:49:10;11.93;;;5.68;;
68010;SDS011;54794;48.348;7.878;2023-03-05T05:51:44;12.07;;;5.43;;
68010;SDS011;54794;48.348;7.878;2023-03-05T05:54:16;14.75;;;5.93;;
68010;SDS011;54794;48.348;7.878;2023-03-05T05:56:48;12.93;;;5.35;;
68010;SDS011;54794;48.348;7.878;2023-03-05T05:59:24;10.30;;;5.15;;
68010;SDS011;54794;48.348;7.878;2023-03-05T06:02:21;9.63;;;4.47;;
68010;SDS011;54794;48.348;7.878;2023-03-05T06:05:17;8.38;;;4.80;;
68010;SDS011;54794;48.348;7.878;2023-03-05T06:10:52;9.00;;;4.18;;
68010;SDS011;54794;48.348;7.878;2023-03-05T06:13:34;10.38;;;5.05;;
68010;SDS011;54794;48.348;7.878;2023-03-05T06:16:14;10.55;;;5.18;;
68010;SDS011;54794;48.348;7.878;2023-03-05T06:19:02;10.50;;;4.55;;
68010;SDS011;54794;48.348;7.878;2023-03-05T06:21:58;9.15;;;4.78;;
68010;SDS011;54794;48.348;7.878;2023-03-05T06:24:39;9.85;;;5.40;;
68010;SDS011;54794;48.348;7.878;2023-03-05T06:27:38;10.88;;;5.65;;
68010;SDS011;54794;48.348;7.878;2023-03-05T06:31:04;9.32;;;4.40;;
68010;SDS011;54794;48.348;7.878;2023-03-05T06:33:58;9.15;;;3.92;;
68010;SDS011;54794;48.348;7.878;2023-03-05T06:37:01;9.32;;;4.20;;
68010;SDS011;54794;48.348;7.878;2023-03-05T06:40:04;9.40;;;4.47;;
68010;SDS011;54794;48.348;7.878;2023-03-05T06:42:52;11.68;;;4.65;;
68010;SDS011;54794;48.348;7.878;2023-03-05T06:45:36;15.27;;;6.25;;
68010;SDS011;54794;48.348;7.878;2023-03-05T06:48:25;12.10;;;5.55;;
68010;SDS011;54794;48.348;7.878;2023-03-05T06:51:37;10.50;;;4.35;;
68010;SDS011;54794;48.348;7.878;2023-03-05T06:54:36;8.25;;;4.00;;
68010;SDS011;54794;48.348;7.878;2023-03-05T06:57:30;9.98;;;4.70;;
68010;SDS011;54794;48.348;7.878;2023-03-05T07:00:09;11.40;;;5.05;;
68010;SDS011;54794;48.348;7.878;2023-03-05T07:02:54;11.30;;;5.35;;
68010;SDS011;54794;48.348;7.878;2023-03-05T07:05:43;10.70;;;5.03;;
68010;SDS011;54794;48.348;7.878;2023-03-05T07:08:57;9.63;;;4.80;;
68010;SDS011;54794;48.348;7.878;2023-03-05T07:11:54;10.07;;;4.80;;
68010;SDS011;54794;48.348;7.878;2023-03-05T07:15:27;11.48;;;5.05;;
68010;SDS011;54794;48.348;7.878;2023-03-05T07:18:12;10.27;;;4.57;;
68010;SDS011;54794;48.348;7.878;2023-03-05T07:21:06;9.82;;;4.57;;
68010;SDS011;54794;48.348;7.878;2023-03-05T07:23:43;10.25;;;4.93;;
68010;SDS011;54794;48.348;7.878;2023-03-05T07:26:11;9.77;;;4.70;;
68010;SDS011;54794;48.348;7.878;2023-03-05T07:28:52;10.27;;;4.90;;
68010;SDS011;54794;48.348;7.878;2023-03-05T07:31:53;10.50;;;5.25;;
68010;SDS011;54794;48.348;7.878;2023-03-05T07:35:17;10.30;;;4.75;;
68010;SDS011;54794;48.348;7.878;2023-03-05T07:44:22;10.80;;;4.80;;
68010;SDS011;54794;48.348;7.878;2023-03-05T07:47:46;9.27;;;4.13;;
68010;SDS011;54794;48.348;7.878;2023-03-05T07:50:36;10.82;;;5.15;;
68010;SDS011;54794;48.348;7.878;2023-03-05T07:53:20;9.48;;;5.25;;
68010;SDS011;54794;48.348;7.878;2023-03-05T07:56:48;8.35;;;4.55;;
68010;SDS011;54794;48.348;7.878;2023-03-05T07:59:52;9.35;;;4.45;;
68010;SDS011;54794;48.348;7.878;2023-03-05T08:30:12;13.75;;;6.28;;
68010;SDS011;54794;48.348;7.878;2023-03-05T08:32:45;11.23;;;6.10;;
68010;SDS011;54794;48.348;7.878;2023-03-05T08:35:15;11.20;;;5.72;;
68010;SDS011;54794;48.348;7.878;2023-03-05T08:37:42;12.85;;;5.85;;
68010;SDS011;54794;48.348;7.878;2023-03-05T08:40:09;9.60;;;5.38;;
68010;SDS011;54794;48.348;7.878;2023-03-05T08:42:37;12.68;;;6.45;;
68010;SDS011;54794;48.348;7.878;2023-03-05T08:45:04;14.18;;;5.85;;
68010;SDS011;54794;48.348;7.878;2023-03-05T08:49:58;10.30;;;4.95;;
68010;SDS011;54794;48.348;7.878;2023-03-05T08:52:25;10.45;;;4.88;;
68010;SDS011;54794;48.348;7.878;2023-03-05T08:54:53;14.30;;;5.57;;
68010;SDS011;54794;48.348;7.878;2023-03-05T08:57:20;12.90;;;5.70;;
68010;SDS011;54794;48.348;7.878;2023-03-05T09:02:15;9.00;;;3.92;;
68010;SDS011;54794;48.348;7.878;2023-03-05T09:04:42;12.98;;;6.15;;
68010;SDS011;54794;48.348;7.878;2023-03-05T09:07:10;10.52;;;5.07;;
68010;SDS011;54794;48.348;7.878;2023-03-05T09:09:38;11.18;;;5.68;;
68010;SDS011;54794;48.348;7.878;2023-03-05T09:12:06;11.90;;;5.88;;
68010;SDS011;54794;48.348;7.878;2023-03-05T09:14:37;11.40;;;5.40;;
68010;SDS011;54794;48.348;7.878;2023-03-05T09:17:05;11.43;;;5.50;;
68010;SDS011;54794;48.348;7.878;2023-03-05T09:19:37;13.60;;;6.20;;
68010;SDS011;54794;48.348;7.878;2023-03-05T09:22:06;13.52;;;6.40;;
68010;SDS011;54794;48.348;7.878;2023-03-05T10:07:03;14.00;;;5.45;;
68010;SDS011;54794;48.348;7.878;2023-03-05T10:26:06;11.80;;;5.45;;
68010;SDS011;54794;48.348;7.878;2023-03-05T10:40:44;11.80;;;4.97;;
68010;SDS011;54794;48.348;7.878;2023-03-05T10:43:41;12.15;;;5.55;;
68010;SDS011;54794;48.348;7.878;2023-03-05T10:58:41;10.93;;;5.03;;
68010;SDS011;54794;48.348;7.878;2023-03-05T11:01:25;14.00;;;5.25;;
68010;SDS011;54794;48.348;7.878;2023-03-05T11:07:40;12.43;;;5.20;;
68010;SDS011;54794;48.348;7.878;2023-03-05T11:10:47;15.93;;;5.72;;
68010;SDS011;54794;48.348;7.878;2023-03-05T11:16:57;11.88;;;5.63;;
68010;SDS011;54794;48.348;7.878;2023-03-05T11:24:02;10.25;;;4.30;;
68010;SDS011;54794;48.348;7.878;2023-03-05T11:33:21;9.65;;;4.07;;
68010;SDS011;54794;48.348;7.878;2023-03-05T11:37:18;9.65;;;4.53;;
68010;SDS011;54794;48.348;7.878;2023-03-05T11:40:15;11.57;;;4.88;;
68010;SDS011;54794;48.348;7.878;2023-03-05T11:46:16;11.63;;;5.32;;
68010;SDS011;54794;48.348;7.878;2023-03-05T11:59:33;8.95;;;4.25;;
68010;SDS011;54794;48.348;7.878;2023-03-05T12:02:59;7.03;;;3.67;;
68010;SDS011;54794;48.348;7.878;2023-03-05T12:06:57;9.27;;;3.97;;
68010;SDS011;54794;48.348;7.878;2023-03-05T12:18:15;9.63;;;3.72;;
68010;SDS011;54794;48.348;7.878;2023-03-05T12:22:41;9.25;;;4.35;;
68010;SDS011;54794;48.348;7.878;2023-03-05T12:49:39;8.27;;;4.13;;
68010;SDS011;54794;48.348;7.878;2023-03-05T12:57:41;7.57;;;4.28;;
68010;SDS011;54794;48.348;7.878;2023-03-05T13:13:45;8.77;;;4.43;;
68010;SDS011;54794;48.348;7.878;2023-03-05T13:21:23;9.07;;;4.53;;
68010;SDS011;54794;48.348;7.878;2023-03-05T13:29:23;6.30;;;3.30;;
68010;SDS011;54794;48.348;7.878;2023-03-05T13:33:15;7.22;;;3.28;;
68010;SDS011;54794;48.348;7.878;2023-03-05T13:36:13;8.07;;;4.05;;
68010;SDS011;54794;48.348;7.878;2023-03-05T13:39:56;9.10;;;4.53;;
68010;SDS011;54794;48.348;7.878;2023-03-05T13:43:10;8.73;;;4.25;;
68010;SDS011;54794;48.348;7.878;2023-03-05T13:55:10;6.03;;;3.28;;
68010;SDS011;54794;48.348;7.878;2023-03-05T14:02:40;8.05;;;4.13;;
68010;SDS011;54794;48.348;7.878;2023-03-05T14:06:29;7.35;;;3.85;;
68010;SDS011;54794;48.348;7.878;2023-03-05T14:13:16;10.80;;;4.47;;
68010;SDS011;54794;48.348;7.878;2023-03-05T14:24:57;7.65;;;3.83;;
68010;SDS011;54794;48.348;7.878;2023-03-05T14:33:33;7.55;;;3.72;;
68010;SDS011;54794;48.348;7.878;2023-03-05T14:37:38;5.20;;;3.00;;
68010;SDS011;54794;48.348;7.878;2023-03-05T15:09:44;5.10;;;2.90;;
68010;SDS011;54794;48.348;7.878;2023-03-05T15:13:20;8.07;;;3.85;;
68010;SDS011;54794;48.348;7.878;2023-03-05T15:15:54;7.05;;;3.47;;
68010;SDS011;54794;48.348;7.878;2023-03-05T15:19:42;8.05;;;4.03;;
68010;SDS011;54794;48.348;7.878;2023-03-05T15:23:48;6.88;;;3.63;;
68010;SDS011;54794;48.348;7.878;2023-03-05T15:35:09;8.55;;;3.85;;
68010;SDS011;54794;48.348;7.878;2023-03-05T15:57:41;5.72;;;3.10;;
68010;SDS011;54794;48.348;7.878;2023-03-05T16:01:10;5.90;;;3.08;;
68010;SDS011;54794;48.348;7.878;2023-03-05T16:05:11;7.60;;;3.47;;
68010;SDS011;54794;48.348;7.878;2023-03-05T16:15:52;6.05;;;3.85;;
68010;SDS011;54794;48.348;7.878;2023-03-05T16:23:07;7.22;;;3.65;;
68010;SDS011;54794;48.348;7.878;2023-03-05T16:26:41;7.15;;;3.72;;
68010;SDS011;54794;48.348;7.878;2023-03-05T16:30:22;6.63;;;3.55;;
68010;SDS011;54794;48.348;7.878;2023-03-05T16:34:32;6.28;;;2.97;;
68010;SDS011;54794;48.348;7.878;2023-03-05T16:46:45;8.18;;;3.50;;
68010;SDS011;54794;48.348;7.878;2023-03-05T17:01:26;8.02;;;4.03;;
68010;SDS011;54794;48.348;7.878;2023-03-05T17:05:23;6.28;;;3.45;;
68010;SDS011;54794;48.348;7.878;2023-03-05T17:09:21;6.18;;;3.55;;
68010;SDS011;54794;48.348;7.878;2023-03-05T17:16:04;9.05;;;3.55;;
68010;SDS011;54794;48.348;7.878;2023-03-05T17:19:41;9.30;;;3.63;;
68010;SDS011;54794;48.348;7.878;2023-03-05T17:23:07;21.85;;;3.67;;
68010;SDS011;54794;48.348;7.878;2023-03-05T17:25:47;8.32;;;3.63;;
68010;SDS011;54794;48.348;7.878;2023-03-05T17:32:38;13.32;;;4.00;;
68010;SDS011;54794;48.348;7.878;2023-03-05T17:35:50;8.95;;;3.65;;
68010;SDS011;54794;48.348;7.878;2023-03-05T17:39:04;7.28;;;3.67;;
68010;SDS011;54794;48.348;7.878;2023-03-05T17:45:40;7.30;;;3.75;;
68010;SDS011;54794;48.348;7.878;2023-03-05T17:48:56;6.07;;;3.85;;
68010;SDS011;54794;48.348;7.878;2023-03-05T17:51:46;8.63;;;3.63;;
68010;SDS011;54794;48.348;7.878;2023-03-05T17:54:26;8.52;;;3.85;;
68010;SDS011;54794;48.348;7.878;2023-03-05T17:57:26;8.80;;;3.95;;
68010;SDS011;54794;48.348;7.878;2023-03-05T18:04:25;8.57;;;4.45;;
68010;SDS011;54794;48.348;7.878;2023-03-05T18:06:52;10.73;;;4.97;;
68010;SDS011;54794;48.348;7.878;2023-03-05T18:09:19;11.25;;;5.22;;
68010;SDS011;54794;48.348;7.878;2023-03-05T18:11:46;10.45;;;5.63;;
68010;SDS011;54794;48.348;7.878;2023-03-05T18:14:14;12.95;;;6.28;;
68010;SDS011;54794;48.348;7.878;2023-03-05T18:16:45;11.55;;;6.00;;
68010;SDS011;54794;48.348;7.878;2023-03-05T18:19:12;10.90;;;5.75;;
68010;SDS011;54794;48.348;7.878;2023-03-05T18:21:40;9.00;;;5.13;;
68010;SDS011;54794;48.348;7.878;2023-03-05T18:24:07;8.95;;;5.35;;
68010;SDS011;54794;48.348;7.878;2023-03-05T18:26:34;11.90;;;6.22;;
68010;SDS011;54794;48.348;7.878;2023-03-05T18:29:03;9.75;;;5.63;;
68010;SDS011;54794;48.348;7.878;2023-03-05T18:31:30;11.38;;;5.93;;
68010;SDS011;54794;48.348;7.878;2023-03-05T18:33:57;10.60;;;5.55;;
68010;SDS011;54794;48.348;7.878;2023-03-05T18:36:24;11.43;;;5.75;;
68010;SDS011;54794;48.348;7.878;2023-03-05T18:38:51;11.23;;;5.35;;
68010;SDS011;54794;48.348;7.878;2023-03-05T18:41:19;11.23;;;5.13;;
68010;SDS011;54794;48.348;7.878;2023-03-05T18:43:52;9.80;;;5.13;;
68010;SDS011;54794;48.348;7.878;2023-03-05T18:46:19;10.55;;;5.05;;
68010;SDS011;54794;48.348;7.878;2023-03-05T18:48:46;9.05;;;4.65;;
68010;SDS011;54794;48.348;7.878;2023-03-05T18:51:14;8.82;;;5.00;;
68010;SDS011;54794;48.348;7.878;2023-03-05T18:53:44;11.35;;;5.28;;
68010;SDS011;54794;48.348;7.878;2023-03-05T18:56:11;13.23;;;5.60;;
68010;SDS011;54794;48.348;7.878;2023-03-05T18:58:41;9.60;;;4.95;;
68010;SDS011;54794;48.348;7.878;2023-03-05T19:01:08;11.15;;;5.35;;
68010;SDS011;54794;48.348;7.878;2023-03-05T19:03:36;11.65;;;5.85;;
68010;SDS011;54794;48.348;7.878;2023-03-05T19:06:03;12.45;;;6.07;;
68010;SDS011;54794;48.348;7.878;2023-03-05T19:08:32;11.93;;;6.07;;
68010;SDS011;54794;48.348;7.878;2023-03-05T19:10:59;13.02;;;6.30;;
68010;SDS011;54794;48.348;7.878;2023-03-05T19:13:34;12.82;;;6.22;;
68010;SDS011;54794;48.348;7.878;2023-03-05T19:16:09;12.07;;;5.50;;
68010;SDS011;54794;48.348;7.878;2023-03-05T19:18:36;10.15;;;4.90;;
68010;SDS011;54794;48.348;7.878;2023-03-05T19:21:09;11.38;;;6.10;;
68010;SDS011;54794;48.348;7.878;2023-03-05T19:23:36;12.95;;;5.88;;
68010;SDS011;54794;48.348;7.878;2023-03-05T19:26:03;11.02;;;5.55;;
68010;SDS011;54794;48.348;7.878;2023-03-05T19:28:30;10.73;;;5.57;;
68010;SDS011;54794;48.348;7.878;2023-03-05T19:30:57;8.85;;;5.20;;
68010;SDS011;54794;48.348;7.878;2023-03-05T19:33:24;10.90;;;5.75;;
68010;SDS011;54794;48.348;7.878;2023-03-05T19:35:50;10.45;;;5.80;;
68010;SDS011;54794;48.348;7.878;2023-03-05T19:38:17;10.10;;;5.25;;
68010;SDS011;54794;48.348;7.878;2023-03-05T19:40:45;10.63;;;5.87;;
68010;SDS011;54794;48.348;7.878;2023-03-05T19:43:13;12.10;;;5.57;;
68010;SDS011;54794;48.348;7.878;2023-03-05T19:45:39;10.85;;;6.35;;
68010;SDS011;54794;48.348;7.878;2023-03-05T19:48:06;11.35;;;5.75;;
68010;SDS011;54794;48.348;7.878;2023-03-05T19:50:33;11.80;;;6.13;;
68010;SDS011;54794;48.348;7.878;2023-03-05T19:53:00;12.15;;;6.15;;
68010;SDS011;54794;48.348;7.878;2023-03-05T19:55:27;12.20;;;5.18;;
68010;SDS011;54794;48.348;7.878;2023-03-05T19:57:54;10.27;;;5.38;;
68010;SDS011;54794;48.348;7.878;2023-03-05T20:00:22;9.80;;;5.37;;
68010;SDS011;54794;48.348;7.878;2023-03-05T20:02:52;8.60;;;4.90;;
68010;SDS011;54794;48.348;7.878;2023-03-05T20:05:19;11.45;;;5.18;;
68010;SDS011;54794;48.348;7.878;2023-03-05T20:07:48;11.00;;;5.65;;
68010;SDS011;54794;48.348;7.878;2023-03-05T20:10:15;9.35;;;5.28;;
68010;SDS011;54794;48.348;7.878;2023-03-05T20:12:42;9.40;;;5.60;;
68010;SDS011;54794;48.348;7.878;2023-03-05T20:15:13;10.18;;;4.97;;
68010;SDS011;54794;48.348;7.878;2023-03-05T20:20:14;7.70;;;3.80;;
68010;SDS011;54794;48.348;7.878;2023-03-05T20:22:43;7.65;;;3.92;;
68010;SDS011;54794;48.348;7.878;2023-03-05T20:25:13;9.02;;;4.43;;
68010;SDS011;54794;48.348;7.878;2023-03-05T20:27:42;9.52;;;4.30;;
68010;SDS011;54794;48.348;7.878;2023-03-05T20:30:13;7.55;;;4.22;;
68010;SDS011;54794;48.348;7.878;2023-03-05T20:32:41;8.05;;;3.97;;
68010;SDS011;54794;48.348;7.878;2023-03-05T20:35:10;9.32;;;4.38;;
68010;SDS011;54794;48.348;7.878;2023-03-05T20:37:42;8.52;;;4.47;;
68010;SDS011;54794;48.348;7.878;2023-03-05T20:40:16;9.82;;;4.38;;
68010;SDS011;54794;48.348;7.878;2023-03-05T20:42:43;8.63;;;4.25;;
68010;SDS011;54794;48.348;7.878;2023-03-05T20:45:10;8.95;;;4.65;;
68010;SDS011;54794;48.348;7.878;2023-03-05T20:47:37;8.82;;;4.90;;
68010;SDS011;54794;48.348;7.878;2023-03-05T20:50:11;8.88;;;4.55;;
68010;SDS011;54794;48.348;7.878;2023-03-05T20:52:41;7.97;;;3.97;;
68010;SDS011;54794;48.348;7.878;2023-03-05T20:55:10;9.00;;;4.38;;
68010;SDS011;54794;48.348;7.878;2023-03-05T20:57:37;8.25;;;4.72;;
68010;SDS011;54794;48.348;7.878;2023-03-05T21:00:06;9.23;;;4.82;;
68010;SDS011;54794;48.348;7.878;2023-03-05T21:02:34;8.02;;;4.57;;
68010;SDS011;54794;48.348;7.878;2023-03-05T21:05:01;10.57;;;4.80;;
68010;SDS011;54794;48.348;7.878;2023-03-05T21:07:28;7.68;;;4.20;;
68010;SDS011;54794;48.348;7.878;2023-03-05T21:09:55;8.10;;;3.90;;
68010;SDS011;54794;48.348;7.878;2023-03-05T21:12:22;7.00;;;3.92;;
68010;SDS011;54794;48.348;7.878;2023-03-05T21:14:49;8.70;;;4.57;;
68010;SDS011;54794;48.348;7.878;2023-03-05T21:17:16;8.10;;;3.95;;
68010;SDS011;54794;48.348;7.878;2023-03-05T21:19:43;10.35;;;4.53;;
68010;SDS011;54794;48.348;7.878;2023-03-05T21:22:10;7.18;;;3.90;;
68010;SDS011;54794;48.348;7.878;2023-03-05T21:24:37;11.70;;;4.43;;
68010;SDS011;54794;48.348;7.878;2023-03-05T21:27:19;7.88;;;4.28;;
68010;SDS011;54794;48.348;7.878;2023-03-05T21:29:45;7.38;;;4.47;;
68010;SDS011;54794;48.348;7.878;2023-03-05T21:32:12;8.75;;;4.13;;
68010;SDS011;54794;48.348;7.878;2023-03-05T21:37:08;8.88;;;4.68;;
68010;SDS011;54794;48.348;7.878;2023-03-05T21:39:36;9.30;;;4.65;;
68010;SDS011;54794;48.348;7.878;2023-03-05T21:42:02;9.80;;;4.53;;
68010;SDS011;54794;48.348;7.878;2023-03-05T21:44:30;9.52;;;4.15;;
68010;SDS011;54794;48.348;7.878;2023-03-05T21:46:57;8.75;;;4.45;;
68010;SDS011;54794;48.348;7.878;2023-03-05T21:49:23;9.10;;;4.30;;
68010;SDS011;54794;48.348;7.878;2023-03-05T21:51:50;7.95;;;4.47;;
68010;SDS011;54794;48.348;7.878;2023-03-05T21:54:37;7.53;;;4.38;;
68010;SDS011;54794;48.348;7.878;2023-03-05T21:57:05;8.90;;;4.90;;
68010;SDS011;54794;48.348;7.878;2023-03-05T21:59:37;11.85;;;6.00;;
68010;SDS011;54794;48.348;7.878;2023-03-05T22:02:13;9.65;;;5.30;;
68010;SDS011;54794;48.348;7.878;2023-03-05T22:04:44;9.32;;;4.80;;
68010;SDS011;54794;48.348;7.878;2023-03-05T22:07:13;8.60;;;4.53;;
68010;SDS011;54794;48.348;7.878;2023-03-05T22:09:41;9.00;;;4.70;;
68010;SDS011;54794;48.348;7.878;2023-03-05T22:12:09;8.75;;;4.68;;
68010;SDS011;54794;48.348;7.878;2023-03-05T22:14:40;10.88;;;5.15;;
68010;SDS011;54794;48.348;7.878;2023-03-05T22:17:07;9.43;;;4.93;;
68010;SDS011;54794;48.348;7.878;2023-03-05T22:19:34;10.95;;;5.53;;
68010;SDS011;54794;48.348;7.878;2023-03-05T22:22:00;8.87;;;4.83;;
68010;SDS011;54794;48.348;7.878;2023-03-05T22:24:27;9.95;;;5.18;;
68010;SDS011;54794;48.348;7.878;2023-03-05T22:26:54;8.27;;;4.70;;
68010;SDS011;54794;48.348;7.878;2023-03-05T22:29:21;10.90;;;4.80;;
68010;SDS011;54794;48.348;7.878;2023-03-05T22:31:48;8.52;;;4.22;;